createdAt,value
2023-05-14T00:02:17.598Z,84.41
2023-05-14T00:04:46.096Z,84.34
2023-05-14T00:07:14.490Z,84.22
2023-05-14T00:09:42.871Z,84.54
2023-05-14T00:12:11.335Z,84.47
2023-05-14T00:14:39.720Z,84.58
2023-05-14T00:17:08.720Z,84.84
2023-05-14T00:19:37.167Z,84.94
2023-05-14T00:22:05.816Z,84.43
2023-05-14T00:24:34.997Z,84.13
2023-05-14T00:27:04.224Z,84.07
2023-05-14T00:29:32.716Z,83.97
2023-05-14T00:32:01.256Z,83.76
2023-05-14T00:34:29.666Z,83.47
2023-05-14T00:36:58.144Z,83.37
2023-05-14T00:39:26.463Z,83.43
2023-05-14T00:41:54.913Z,83.30
2023-05-14T00:44:23.381Z,83.71
2023-05-14T00:46:52.625Z,83.84
2023-05-14T00:49:21.500Z,83.97
2023-05-14T00:51:49.940Z,83.95
2023-05-14T00:54:18.540Z,83.82
2023-05-14T00:56:47.638Z,83.72
2023-05-14T00:59:16.035Z,83.60
2023-05-14T01:01:44.672Z,83.61
2023-05-14T01:04:13.401Z,83.68
2023-05-14T01:06:52.276Z,83.70
2023-05-14T01:09:54.089Z,83.55
2023-05-14T01:12:37.346Z,83.54
2023-05-14T01:15:11.330Z,83.46
2023-05-14T01:17:49.357Z,83.52
2023-05-14T01:20:18.196Z,83.72
2023-05-14T01:22:46.540Z,83.54
2023-05-14T01:25:15.444Z,83.72
2023-05-14T01:28:19.452Z,83.95
2023-05-14T01:31:01.181Z,84.02
2023-05-14T01:33:31.956Z,84.09
2023-05-14T01:36:00.996Z,84.10
2023-05-14T01:38:34.322Z,84.56
2023-05-14T01:41:03.617Z,85.54
2023-05-14T01:43:32.581Z,85.07
2023-05-14T01:46:01.193Z,84.92
2023-05-14T01:48:30.492Z,85.32
2023-05-14T01:50:58.881Z,85.22
2023-05-14T01:53:27.428Z,85.68
2023-05-14T01:55:55.875Z,85.69
2023-05-14T01:58:24.260Z,85.99
2023-05-14T02:00:52.636Z,85.95
2023-05-14T02:03:20.974Z,85.72
2023-05-14T02:05:49.410Z,85.76
2023-05-14T02:08:17.716Z,85.84
2023-05-14T02:10:46.163Z,86.27
2023-05-14T02:13:14.715Z,86.53
2023-05-14T02:15:43.275Z,86.57
2023-05-14T02:18:11.808Z,86.63
2023-05-14T02:20:40.411Z,86.86
2023-05-14T02:23:08.740Z,86.80
2023-05-14T02:25:37.986Z,86.90
2023-05-14T02:28:06.407Z,86.77
2023-05-14T02:30:34.826Z,86.87
2023-05-14T02:33:03.404Z,87.18
2023-05-14T02:35:31.933Z,87.36
2023-05-14T02:38:00.352Z,87.43
2023-05-14T02:40:28.803Z,87.07
2023-05-14T02:42:57.216Z,87.36
2023-05-14T02:45:25.638Z,87.25
2023-05-14T02:47:54.052Z,87.02
2023-05-14T02:50:22.794Z,86.95
2023-05-14T02:52:51.482Z,87.33
2023-05-14T02:55:19.992Z,87.45
2023-05-14T02:57:48.450Z,87.97
2023-05-14T03:00:17.051Z,88.38
2023-05-14T03:02:45.920Z,88.44
2023-05-14T03:05:14.835Z,88.44
2023-05-14T03:07:43.238Z,88.64
2023-05-14T03:10:11.615Z,89.01
2023-05-14T03:12:40.035Z,89.42
2023-05-14T03:15:09.099Z,89.47
2023-05-14T03:17:37.600Z,89.58
2023-05-14T03:20:06.686Z,89.63
2023-05-14T03:22:35.079Z,89.86
2023-05-14T03:25:03.606Z,90.04
2023-05-14T03:27:31.902Z,90.24
2023-05-14T03:30:00.956Z,90.41
2023-05-14T03:32:30.107Z,90.40
2023-05-14T03:34:58.590Z,90.50
2023-05-14T03:37:26.884Z,90.52
2023-05-14T03:39:55.249Z,90.45
2023-05-14T03:42:23.536Z,90.53
2023-05-14T03:44:51.907Z,90.52
2023-05-14T03:47:20.313Z,89.98
2023-05-14T03:49:48.691Z,89.63
2023-05-14T03:52:17.796Z,89.39
2023-05-14T03:54:46.148Z,89.18
2023-05-14T03:57:14.572Z,88.81
2023-05-14T03:59:42.906Z,88.45
2023-05-14T04:02:11.364Z,88.02
2023-05-14T04:04:40.513Z,87.82
2023-05-14T04:07:09.282Z,87.38
2023-05-14T04:09:37.762Z,87.19
2023-05-14T04:12:06.947Z,87.18
2023-05-14T04:14:35.824Z,87.01
2023-05-14T04:17:04.307Z,86.74
2023-05-14T04:19:32.671Z,86.57
2023-05-14T04:22:01.189Z,86.34
2023-05-14T04:24:29.812Z,86.06
2023-05-14T04:26:58.338Z,85.95
2023-05-14T04:29:26.796Z,85.60
2023-05-14T04:31:55.331Z,84.77
2023-05-14T04:34:23.817Z,84.43
2023-05-14T04:36:52.548Z,84.06
2023-05-14T04:39:20.931Z,83.47
2023-05-14T04:41:49.347Z,83.27
2023-05-14T04:44:17.706Z,83.39
2023-05-14T04:46:46.272Z,82.71
2023-05-14T04:49:14.762Z,82.75
2023-05-14T04:51:43.449Z,82.47
2023-05-14T04:54:12.032Z,81.76
2023-05-14T04:56:40.357Z,81.64
2023-05-14T04:59:09.004Z,81.14
2023-05-14T05:01:37.676Z,80.95
2023-05-14T05:04:06.126Z,80.23
2023-05-14T05:06:34.697Z,79.09
2023-05-14T05:09:03.217Z,78.58
2023-05-14T05:11:31.575Z,78.18
2023-05-14T05:14:00.007Z,77.66
2023-05-14T05:16:28.641Z,77.30
2023-05-14T05:18:57.308Z,76.86
2023-05-14T05:21:26.227Z,76.75
2023-05-14T05:23:54.597Z,76.53
2023-05-14T05:26:23.369Z,76.04
2023-05-14T05:28:51.742Z,75.42
2023-05-14T05:31:20.237Z,74.86
2023-05-14T05:33:48.725Z,74.39
2023-05-14T05:36:17.474Z,74.17
2023-05-14T05:38:45.935Z,72.50
2023-05-14T05:41:14.314Z,72.31
2023-05-14T05:43:42.878Z,72.39
2023-05-14T05:46:12.219Z,72.28
2023-05-14T05:48:40.684Z,72.05
2023-05-14T05:51:09.171Z,71.63
2023-05-14T05:53:37.617Z,71.32
2023-05-14T05:56:06.799Z,70.75
2023-05-14T05:58:35.076Z,69.87
2023-05-14T06:01:03.588Z,69.58
2023-05-14T06:03:31.973Z,69.15
2023-05-14T06:06:00.548Z,69.09
2023-05-14T06:08:28.917Z,68.13
2023-05-14T06:10:57.400Z,67.86
2023-05-14T06:13:25.860Z,67.71
2023-05-14T06:15:54.390Z,67.36
2023-05-14T06:18:22.944Z,66.81
2023-05-14T06:20:53.145Z,66.64
2023-05-14T06:23:23.955Z,66.81
2023-05-14T06:25:54.933Z,66.51
2023-05-14T06:28:24.330Z,67.04
2023-05-14T06:30:54.321Z,66.58
2023-05-14T06:33:30.142Z,65.99
2023-05-14T06:36:00.091Z,65.11
2023-05-14T06:38:28.721Z,64.57
2023-05-14T06:40:57.131Z,63.65
2023-05-14T06:43:25.834Z,62.29
2023-05-14T06:45:54.963Z,61.63
2023-05-14T06:48:23.931Z,61.16
2023-05-14T06:50:52.646Z,61.12
2023-05-14T06:53:21.529Z,60.92
2023-05-14T06:55:50.428Z,60.80
2023-05-14T06:58:18.780Z,59.81
2023-05-14T07:00:47.170Z,59.44
2023-05-14T07:03:15.673Z,59.58
2023-05-14T07:05:46.187Z,59.54
2023-05-14T07:08:14.710Z,58.28
2023-05-14T07:10:43.262Z,58.42
2023-05-14T07:13:11.860Z,56.74
2023-05-14T07:15:40.709Z,55.48
2023-05-14T07:18:09.262Z,56.39
2023-05-14T07:20:37.791Z,56.75
2023-05-14T07:23:06.487Z,56.66
2023-05-14T07:25:34.994Z,56.18
2023-05-14T07:28:03.427Z,54.20
2023-05-14T07:30:31.886Z,53.14
2023-05-14T07:33:00.321Z,52.90
2023-05-14T07:35:28.758Z,52.88
2023-05-14T07:37:57.460Z,49.01
2023-05-14T07:40:26.561Z,48.33
2023-05-14T07:42:55.245Z,49.53
2023-05-14T07:45:23.725Z,49.57
2023-05-14T07:47:52.452Z,49.79
2023-05-14T07:50:21.520Z,48.54
2023-05-14T07:52:50.221Z,48.12
2023-05-14T07:55:18.785Z,47.32
2023-05-14T07:57:47.706Z,47.57
2023-05-14T08:00:17.075Z,46.71
2023-05-14T08:02:45.831Z,47.54
2023-05-14T08:05:14.555Z,48.44
2023-05-14T08:07:43.648Z,49.12
2023-05-14T08:10:12.372Z,48.13
2023-05-14T08:12:40.900Z,45.32
2023-05-14T08:15:09.867Z,44.83
2023-05-14T08:17:38.382Z,46.26
2023-05-14T08:20:07.845Z,45.70
2023-05-14T08:22:36.242Z,45.15
2023-05-14T08:25:06.340Z,44.14
2023-05-14T08:27:34.823Z,42.02
2023-05-14T08:30:03.674Z,40.69
2023-05-14T08:32:32.178Z,41.66
2023-05-14T08:35:00.723Z,42.49
2023-05-14T08:37:29.305Z,41.18
2023-05-14T08:39:57.687Z,39.66
2023-05-14T08:42:29.046Z,39.77
2023-05-14T08:45:02.522Z,39.48
2023-05-14T08:47:34.308Z,39.29
2023-05-14T08:50:08.629Z,39.59
2023-05-14T08:52:37.838Z,38.80
2023-05-14T08:55:07.136Z,37.54
2023-05-14T08:57:35.990Z,37.60
2023-05-14T09:00:14.567Z,37.11
2023-05-14T09:02:45.298Z,38.61
2023-05-14T09:05:15.476Z,37.58
2023-05-14T09:07:44.078Z,38.22
2023-05-14T09:10:12.644Z,36.47
2023-05-14T09:12:41.404Z,36.29
2023-05-14T09:15:10.058Z,36.10
2023-05-14T09:17:38.394Z,35.26
2023-05-14T09:20:07.684Z,34.11
2023-05-14T09:22:36.221Z,32.73
2023-05-14T09:25:10.118Z,33.44
2023-05-14T09:27:39.220Z,33.48
2023-05-14T09:30:12.777Z,33.66
2023-05-14T09:32:47.325Z,32.20
2023-05-14T09:35:23.961Z,31.79
2023-05-14T09:37:54.645Z,31.43
2023-05-14T09:40:27.783Z,30.89
2023-05-14T09:42:56.518Z,31.41
2023-05-14T09:45:27.652Z,32.43
2023-05-14T09:47:56.206Z,30.87
2023-05-14T09:50:29.385Z,30.54
2023-05-14T09:52:59.553Z,29.63
2023-05-14T09:55:28.300Z,30.32
2023-05-14T09:57:57.028Z,28.88
2023-05-14T10:00:26.507Z,28.89
2023-05-14T10:02:57.145Z,30.12
2023-05-14T10:05:27.126Z,29.49
2023-05-14T10:08:00.401Z,30.03
2023-05-14T10:10:30.704Z,29.34
2023-05-14T10:13:08.295Z,30.48
2023-05-14T10:20:01.993Z,29.23
2023-05-14T10:22:35.304Z,29.62
2023-05-14T10:25:15.834Z,29.53
2023-05-14T10:27:53.103Z,29.71
2023-05-14T10:30:30.533Z,29.92
2023-05-14T10:33:12.090Z,29.22
2023-05-14T10:36:02.591Z,27.94
2023-05-14T10:38:36.173Z,28.06
2023-05-14T10:41:13.806Z,27.65
2023-05-14T10:43:44.618Z,28.29
2023-05-14T10:46:14.390Z,27.82
2023-05-14T10:48:43.972Z,27.55
2023-05-14T10:51:13.227Z,27.84
2023-05-14T10:53:59.076Z,27.75
2023-05-14T10:56:29.601Z,28.06
2023-05-14T10:59:00.422Z,28.18
2023-05-14T11:01:29.748Z,28.29
2023-05-14T11:03:58.956Z,28.25
2023-05-14T11:06:28.505Z,28.19
2023-05-14T11:09:01.199Z,27.84
2023-05-14T11:11:34.233Z,27.97
2023-05-14T11:14:04.768Z,28.73
2023-05-14T11:16:34.671Z,28.16
2023-05-14T11:19:05.264Z,26.89
2023-05-14T11:21:33.942Z,26.18
2023-05-14T11:24:04.019Z,26.09
2023-05-14T11:26:33.578Z,27.44
2023-05-14T11:29:02.888Z,25.88
2023-05-14T11:31:31.954Z,26.40
2023-05-14T11:34:01.331Z,27.46
2023-05-14T11:36:29.895Z,27.30
2023-05-14T11:38:58.880Z,26.48
2023-05-14T11:41:28.419Z,26.21
2023-05-14T11:43:58.853Z,26.52
2023-05-14T11:46:28.890Z,25.52
2023-05-14T11:48:57.526Z,25.66
2023-05-14T11:51:26.412Z,25.50
2023-05-14T11:53:55.522Z,25.41
2023-05-14T11:56:25.366Z,25.99
2023-05-14T11:59:11.183Z,26.33
2023-05-14T12:01:39.973Z,25.84
2023-05-14T12:04:11.038Z,26.45
2023-05-14T12:06:41.594Z,26.62
2023-05-14T12:09:13.022Z,26.70
2023-05-14T12:11:42.058Z,26.06
2023-05-14T12:14:22.537Z,25.21
2023-05-14T12:16:52.064Z,26.60
2023-05-14T12:19:27.397Z,26.22
2023-05-14T12:21:56.019Z,26.46
2023-05-14T12:24:27.633Z,26.30
2023-05-14T12:26:57.711Z,26.59
2023-05-14T12:29:27.590Z,27.13
2023-05-14T12:31:59.721Z,26.61
2023-05-14T12:34:28.673Z,26.70
2023-05-14T12:36:57.241Z,26.16
2023-05-14T12:39:25.758Z,25.34
2023-05-14T12:41:56.726Z,25.60
2023-05-14T12:44:26.185Z,25.81
2023-05-14T12:46:55.625Z,27.07
2023-05-14T12:49:26.030Z,27.53
2023-05-14T12:52:04.492Z,26.83
2023-05-14T12:54:44.732Z,27.54
2023-05-14T12:57:15.462Z,27.63
2023-05-14T12:59:47.832Z,28.41
2023-05-14T13:02:20.736Z,26.59
2023-05-14T13:04:52.733Z,26.16
2023-05-14T13:07:24.896Z,26.12
2023-05-14T13:09:56.349Z,27.32
2023-05-14T13:12:28.542Z,27.88
2023-05-14T13:15:00.876Z,27.47
2023-05-14T13:17:32.639Z,27.04
2023-05-14T13:20:05.932Z,27.66
2023-05-14T13:22:41.108Z,28.61
2023-05-14T13:25:11.151Z,28.87
2023-05-14T13:27:41.520Z,28.33
2023-05-14T13:30:13.971Z,28.48
2023-05-14T13:32:46.489Z,28.78
2023-05-14T13:35:20.335Z,28.29
2023-05-14T13:37:53.680Z,27.60
2023-05-14T13:40:26.099Z,27.76
2023-05-14T13:42:57.950Z,26.85
2023-05-14T13:45:29.808Z,26.55
2023-05-14T13:48:02.943Z,26.24
2023-05-14T13:50:33.477Z,26.90
2023-05-14T13:53:14.146Z,27.63
2023-05-14T13:55:46.675Z,27.50
2023-05-14T14:04:55.096Z,27.02
2023-05-14T14:07:23.717Z,25.53
2023-05-14T14:09:52.318Z,25.86
2023-05-14T14:12:21.428Z,25.66
2023-05-14T14:14:49.970Z,26.37
2023-05-14T14:24:05.970Z,26.72
2023-05-14T14:26:33.128Z,26.43
2023-05-14T14:29:00.311Z,26.90
2023-05-14T14:31:28.224Z,26.61
2023-05-14T14:33:55.348Z,27.08
2023-05-14T14:36:22.491Z,27.34
2023-05-14T14:38:49.722Z,26.91
2023-05-14T14:41:16.998Z,27.33
2023-05-14T14:43:44.305Z,26.83
2023-05-14T14:46:11.542Z,26.96
2023-05-14T14:48:41.070Z,27.82
2023-05-14T14:51:09.363Z,28.05
2023-05-14T14:53:37.220Z,28.41
2023-05-14T14:56:05.580Z,28.09
2023-05-14T14:58:32.936Z,28.29
2023-05-14T15:01:00.770Z,28.49
2023-05-14T15:03:30.650Z,28.08
2023-05-14T15:05:58.270Z,27.86
2023-05-14T15:08:27.133Z,27.89
2023-05-14T15:10:56.243Z,28.11
2023-05-14T15:13:26.587Z,28.78
2023-05-14T15:15:54.462Z,28.80
2023-05-14T15:18:21.937Z,28.54
2023-05-14T15:20:49.733Z,28.54
2023-05-14T15:23:17.771Z,28.82
2023-05-14T15:25:46.622Z,28.89
2023-05-14T15:28:14.425Z,28.88
2023-05-14T15:30:43.095Z,29.45
2023-05-14T15:33:10.503Z,29.56
2023-05-14T15:35:37.925Z,29.39
2023-05-14T15:38:08.050Z,29.37
2023-05-14T15:40:37.698Z,29.88
2023-05-14T15:43:05.293Z,30.08
2023-05-14T15:45:32.441Z,30.77
2023-05-14T15:47:59.548Z,30.37
2023-05-14T15:50:27.156Z,30.58
2023-05-14T15:53:12.419Z,30.51
2023-05-14T15:55:41.040Z,30.92
2023-05-14T15:58:09.511Z,31.20
2023-05-14T16:00:38.213Z,31.45
2023-05-14T16:03:06.976Z,31.46
2023-05-14T16:05:35.625Z,31.37
2023-05-14T16:08:04.545Z,31.47
2023-05-14T16:10:32.929Z,31.63
2023-05-14T16:13:01.443Z,31.61
2023-05-14T16:15:29.993Z,31.38
2023-05-14T16:17:58.632Z,31.67
2023-05-14T16:20:27.293Z,31.50
2023-05-14T16:22:56.071Z,31.90
2023-05-14T16:25:24.928Z,32.18
2023-05-14T16:27:53.384Z,31.31
2023-05-14T16:30:22.040Z,31.81
2023-05-14T16:32:50.675Z,31.66
2023-05-14T16:35:19.252Z,31.49
2023-05-14T16:37:48.115Z,32.29
2023-05-14T16:40:16.866Z,32.16
2023-05-14T16:42:49.436Z,31.63
2023-05-14T16:45:18.401Z,31.98
2023-05-14T16:47:49.780Z,31.93
2023-05-14T16:50:18.482Z,32.00
2023-05-14T16:52:47.047Z,31.87
2023-05-14T16:55:16.102Z,32.24
2023-05-14T16:57:45.024Z,31.86
2023-05-14T17:00:15.485Z,32.13
2023-05-14T17:02:45.214Z,32.63
2023-05-14T17:05:17.775Z,32.68
2023-05-14T17:07:46.508Z,32.72
2023-05-14T17:10:17.688Z,33.15
2023-05-14T17:12:47.648Z,33.29
2023-05-14T17:15:14.993Z,33.34
2023-05-14T17:17:43.883Z,33.38
2023-05-14T17:20:14.159Z,33.57
2023-05-14T17:22:44.795Z,33.60
2023-05-14T17:25:13.222Z,33.82
2023-05-14T17:27:41.629Z,33.83
2023-05-14T17:30:10.990Z,34.25
2023-05-14T17:32:39.608Z,34.46
2023-05-14T17:35:14.290Z,34.55
2023-05-14T17:37:43.332Z,34.76
2023-05-14T17:40:13.811Z,34.86
2023-05-14T17:42:46.024Z,35.41
2023-05-14T17:45:15.948Z,35.56
2023-05-14T17:47:47.692Z,35.59
2023-05-14T17:50:16.844Z,35.94
2023-05-14T17:57:04.662Z,35.95
2023-05-14T17:59:36.512Z,36.30
2023-05-14T18:02:05.978Z,36.67
2023-05-14T18:04:35.995Z,36.84
2023-05-14T18:07:04.926Z,36.81
2023-05-14T18:09:33.272Z,36.75
2023-05-14T18:12:01.582Z,37.03
2023-05-14T18:14:29.979Z,37.34
2023-05-14T18:16:58.432Z,37.50
2023-05-14T18:19:27.026Z,37.59
2023-05-14T18:21:58.064Z,37.86
2023-05-14T18:24:29.197Z,38.06
2023-05-14T18:26:58.192Z,38.25
2023-05-14T18:29:26.561Z,38.15
2023-05-14T18:31:55.034Z,38.13
2023-05-14T18:34:27.378Z,38.57
2023-05-14T18:36:59.059Z,38.60
2023-05-14T18:39:29.596Z,38.77
2023-05-14T18:41:58.703Z,38.86
2023-05-14T18:44:27.530Z,39.02
2023-05-14T18:47:06.633Z,39.05
2023-05-14T18:49:39.095Z,39.37
2023-05-14T18:52:10.964Z,39.44
2023-05-14T18:54:39.425Z,39.68
2023-05-14T18:57:08.415Z,39.61
2023-05-14T18:59:37.092Z,39.84
2023-05-14T19:02:09.277Z,39.89
2023-05-14T19:04:51.157Z,40.17
2023-05-14T19:07:22.169Z,40.26
2023-05-14T19:09:50.959Z,40.63
2023-05-14T19:12:21.078Z,40.58
2023-05-14T19:14:49.574Z,40.66
2023-05-14T19:17:19.954Z,40.73
2023-05-14T19:19:49.135Z,40.79
2023-05-14T19:22:17.732Z,41.02
2023-05-14T19:24:46.068Z,40.86
2023-05-14T19:27:17.046Z,41.14
2023-05-14T19:29:45.573Z,41.41
2023-05-14T19:32:14.034Z,41.51
2023-05-14T19:34:42.624Z,41.51
2023-05-14T19:37:11.615Z,41.84
2023-05-14T19:39:40.702Z,42.20
2023-05-14T19:42:09.883Z,42.50
2023-05-14T19:44:38.934Z,42.70
2023-05-14T19:47:08.093Z,42.86
2023-05-14T19:49:37.973Z,43.22
2023-05-14T19:52:06.626Z,43.27
2023-05-14T19:54:35.500Z,43.42
2023-05-14T19:57:07.332Z,43.77
2023-05-14T19:59:36.301Z,43.53
2023-05-14T20:02:05.916Z,43.67
2023-05-14T20:04:40.324Z,43.68
2023-05-14T20:07:08.955Z,43.79
2023-05-14T20:09:39.756Z,43.76
2023-05-14T20:12:09.649Z,43.90
2023-05-14T20:14:40.974Z,44.36
2023-05-14T20:17:13.111Z,44.12
2023-05-14T20:19:42.154Z,44.10
2023-05-14T20:22:12.865Z,44.14
2023-05-14T20:24:44.520Z,44.22
2023-05-14T20:27:13.445Z,44.25
2023-05-14T20:29:42.389Z,44.36
2023-05-14T20:36:30.174Z,44.24
2023-05-14T20:39:00.733Z,44.52
2023-05-14T20:41:29.091Z,44.42
2023-05-14T20:44:00.591Z,44.33
2023-05-14T20:46:31.738Z,44.61
2023-05-14T20:49:03.020Z,44.74
2023-05-14T20:51:32.979Z,44.70
2023-05-14T20:54:02.784Z,44.53
2023-05-14T20:56:31.318Z,44.82
2023-05-14T20:59:00.505Z,44.75
2023-05-14T21:01:31.661Z,44.78
2023-05-14T21:04:01.642Z,45.03
2023-05-14T21:06:30.468Z,45.01
2023-05-14T21:08:59.206Z,45.15
2023-05-14T21:15:46.094Z,45.35
2023-05-14T21:18:14.457Z,45.45
2023-05-14T21:20:43.547Z,45.28
2023-05-14T21:23:13.136Z,45.45
2023-05-14T21:25:41.567Z,45.54
2023-05-14T21:28:10.393Z,45.69
2023-05-14T21:30:39.014Z,45.54
2023-05-14T21:33:07.971Z,45.91
2023-05-14T21:35:36.822Z,46.10
2023-05-14T21:38:05.284Z,45.96
2023-05-14T21:40:33.570Z,46.07
2023-05-14T21:43:02.086Z,46.18
2023-05-14T21:45:31.235Z,46.23
2023-05-14T21:48:00.024Z,46.13
2023-05-14T21:50:28.445Z,46.49
2023-05-14T21:52:57.931Z,46.51
2023-05-14T21:55:28.188Z,46.61
2023-05-14T21:57:57.794Z,46.71
2023-05-14T22:00:26.311Z,46.86
2023-05-14T22:02:55.725Z,47.00
2023-05-14T22:05:24.798Z,47.18
2023-05-14T22:07:53.959Z,47.11
2023-05-14T22:10:23.277Z,47.03
2023-05-14T22:12:52.203Z,47.32
2023-05-14T22:15:21.103Z,47.12
2023-05-14T22:17:50.759Z,47.29
2023-05-14T22:20:19.333Z,47.38
2023-05-14T22:22:48.029Z,47.72
2023-05-14T22:25:17.752Z,47.60
2023-05-14T22:27:46.366Z,47.58
2023-05-14T22:30:15.187Z,47.68
2023-05-14T22:32:44.069Z,47.76
2023-05-14T22:35:13.133Z,47.97
2023-05-14T22:37:42.796Z,48.00
2023-05-14T22:40:13.917Z,48.03
2023-05-14T22:42:42.295Z,48.14
2023-05-14T22:45:11.628Z,48.29
2023-05-14T22:47:41.042Z,48.33
2023-05-14T22:50:12.466Z,48.27
2023-05-14T22:52:41.766Z,48.36
2023-05-14T22:55:12.833Z,48.61
2023-05-14T22:57:44.871Z,48.70
2023-05-14T23:00:15.841Z,48.54
2023-05-14T23:02:47.913Z,48.64
2023-05-14T23:05:19.528Z,48.56
2023-05-14T23:07:50.365Z,48.65
2023-05-14T23:10:20.724Z,48.67
2023-05-14T23:12:50.795Z,48.54
2023-05-14T23:15:20.946Z,48.95
2023-05-14T23:17:52.646Z,49.09
2023-05-14T23:20:23.932Z,48.99
2023-05-14T23:22:55.901Z,48.99
2023-05-14T23:25:27.958Z,49.01
2023-05-14T23:27:58.919Z,49.12
2023-05-14T23:30:30.962Z,49.31
2023-05-14T23:33:01.466Z,49.36
2023-05-14T23:35:34.163Z,49.36
2023-05-14T23:38:06.321Z,49.31
2023-05-14T23:40:37.872Z,49.23
2023-05-14T23:43:09.345Z,49.24
2023-05-14T23:45:40.382Z,49.16
2023-05-14T23:48:10.553Z,49.45
2023-05-14T23:50:43.015Z,49.26
2023-05-14T23:53:14.904Z,49.23
